Time;durP1;ratioP1;P1;durP2;ratioP2;P2;SDS_P1;SDS_P2;PMS_P1;PMS_P2;Temp;Humidity;BMP_temperature;BMP_pressure;BME280_temperature;BME280_humidity;BME280_pressure;Samples;Min_cycle;Max_cycle;Signal;HPM_P1;HPM_P2
2020/12/30 00:00:55;;;;;;;1.55;1.33;;;4.50;99.90;;;;;;5036564;28;20608;-76
2020/12/30 00:03:20;;;;;;;1.05;0.98;;;4.40;99.90;;;;;;5018782;28;20598;-78
2020/12/30 00:05:46;;;;;;;1.65;1.55;;;4.20;99.90;;;;;;5036397;28;20191;-76
2020/12/30 00:08:11;;;;;;;0.90;0.90;;;3.90;99.90;;;;;;5036511;28;20214;-77
2020/12/30 00:10:37;;;;;;;1.63;1.52;;;3.70;99.90;;;;;;5036723;28;20176;-78
2020/12/30 00:13:03;;;;;;;1.48;0.90;;;3.70;99.90;;;;;;5036274;28;20690;-75
2020/12/30 00:15:29;;;;;;;3.30;1.45;;;3.70;99.90;;;;;;5036309;28;20677;-77
2020/12/30 00:17:55;;;;;;;1.17;1.17;;;3.70;99.90;;;;;;5036220;28;20205;-77
2020/12/30 00:20:21;;;;;;;0.98;0.98;;;3.90;99.90;;;;;;5036234;28;20286;-78
2020/12/30 00:22:47;;;;;;;1.55;1.23;;;3.80;99.90;;;;;;5036144;28;20217;-76
2020/12/30 00:25:13;;;;;;;1.38;1.27;;;3.70;99.90;;;;;;5036079;28;20188;-77
2020/12/30 00:27:41;;;;;;;1.25;1.15;;;3.70;99.90;;;;;;5036029;28;20156;-76
2020/12/30 00:30:09;;;;;;;1.00;1.00;;;3.70;99.90;;;;;;5036282;28;20508;-76
2020/12/30 00:32:34;;;;;;;1.25;1.20;;;3.80;99.90;;;;;;5035953;28;20569;-78
2020/12/30 00:35:00;;;;;;;2.25;1.73;;;4.00;99.90;;;;;;5035828;28;20183;-78
2020/12/30 00:37:26;;;;;;;0.85;0.85;;;4.20;99.90;;;;;;5035910;28;20163;-78
2020/12/30 00:39:51;;;;;;;0.70;0.70;;;4.40;99.90;;;;;;5035658;28;20578;-77
2020/12/30 00:42:17;;;;;;;2.10;2.00;;;4.30;99.90;;;;;;5035822;28;20179;-76
2020/12/30 00:44:42;;;;;;;3.17;2.25;;;4.40;99.90;;;;;;5035772;28;20180;-75
2020/12/30 00:47:08;;;;;;;1.33;0.65;;;4.40;99.90;;;;;;5035766;28;20203;-76
2020/12/30 00:49:34;;;;;;;0.32;0.32;;;4.40;99.90;;;;;;5035665;28;20176;-76
2020/12/30 00:51:59;;;;;;;3.42;1.80;;;4.30;99.90;;;;;;5035600;28;20235;-76
2020/12/30 00:54:25;;;;;;;0.50;0.50;;;4.30;99.90;;;;;;5035423;28;20654;-77
2020/12/30 00:56:51;;;;;;;0.47;0.47;;;4.20;99.90;;;;;;5035606;28;20209;-78
2020/12/30 00:59:18;;;;;;;0.85;0.85;;;4.20;99.90;;;;;;5035444;28;20168;-77
2020/12/30 01:01:44;;;;;;;1.27;1.25;;;4.20;99.90;;;;;;5035025;28;20152;-77
2020/12/30 01:04:10;;;;;;;2.03;1.45;;;4.20;99.90;;;;;;5035328;28;20195;-76
2020/12/30 01:06:36;;;;;;;1.85;1.30;;;4.30;99.90;;;;;;5035350;28;20168;-76
2020/12/30 01:09:05;;;;;;;1.67;1.58;;;4.10;99.90;;;;;;5035315;28;20254;-76
2020/12/30 01:11:31;;;;;;;1.02;1.02;;;4.10;99.90;;;;;;5035152;28;20282;-76
2020/12/30 01:13:59;;;;;;;0.30;0.30;;;4.10;99.90;;;;;;5035169;28;20624;-76
2020/12/30 01:16:26;;;;;;;2.35;2.13;;;4.10;99.90;;;;;;5035076;28;20172;-76
2020/12/30 01:18:52;;;;;;;0.63;0.57;;;4.30;99.90;;;;;;5035230;28;20203;-77
2020/12/30 01:21:17;;;;;;;0.30;0.30;;;4.40;99.90;;;;;;5035091;28;20175;-76
2020/12/30 01:23:43;;;;;;;5.95;1.52;;;4.70;99.90;;;;;;5035116;28;20144;-78
2020/12/30 01:26:10;;;;;;;1.70;1.63;;;5.00;99.90;;;;;;5034819;28;20647;-77
2020/12/30 01:28:35;;;;;;;2.70;1.77;;;5.00;99.90;;;;;;5035046;28;20164;-78
2020/12/30 01:31:02;;;;;;;1.33;1.33;;;5.00;99.90;;;;;;5035070;28;20156;-78
2020/12/30 01:33:27;;;;;;;1.10;1.10;;;5.10;99.90;;;;;;5034818;28;20528;-78
2020/12/30 01:35:53;;;;;;;3.03;2.20;;;5.30;99.90;;;;;;5034793;28;20176;-78
2020/12/30 01:38:19;;;;;;;3.50;1.73;;;5.10;99.90;;;;;;5034725;28;20737;-78
2020/12/30 01:40:45;;;;;;;1.98;1.23;;;4.90;99.90;;;;;;5034670;28;20226;-79
2020/12/30 01:43:12;;;;;;;0.85;0.85;;;4.50;99.90;;;;;;5034556;28;20167;-78
2020/12/30 01:45:38;;;;;;;1.42;1.42;;;4.30;99.90;;;;;;5034570;28;20195;-79
2020/12/30 01:48:09;;;;;;;1.42;1.38;;;4.20;99.90;;;;;;5034704;28;20160;-77
2020/12/30 01:50:34;;;;;;;0.43;0.43;;;4.20;99.90;;;;;;5034595;28;20199;-78
2020/12/30 01:53:02;;;;;;;1.35;1.30;;;4.10;99.90;;;;;;5034430;28;20663;-77
2020/12/30 01:55:31;;;;;;;7.03;3.10;;;4.00;99.90;;;;;;5034329;28;20627;-80
2020/12/30 01:57:57;;;;;;;0.88;0.88;;;3.80;99.90;;;;;;5034417;28;20170;-78
2020/12/30 02:00:22;;;;;;;0.30;0.30;;;3.80;99.90;;;;;;5034407;28;20152;-79
2020/12/30 02:02:59;;;;;;;0.30;0.30;;;3.70;99.90;;;;;;5034231;28;20191;-78
2020/12/30 02:05:25;;;;;;;0.50;0.50;;;3.80;99.90;;;;;;5034145;28;20172;-77
2020/12/30 02:07:50;;;;;;;3.40;2.75;;;3.70;99.90;;;;;;5034087;28;20152;-76
2020/12/30 02:10:16;;;;;;;1.38;1.38;;;3.70;99.90;;;;;;5034124;28;20259;-76
2020/12/30 02:12:44;;;;;;;9.18;1.02;;;3.70;99.90;;;;;;5033159;28;20203;-77
2020/12/30 02:15:22;;;;;;;0.38;0.38;;;3.60;99.90;;;;;;5034055;28;20188;-78
2020/12/30 02:17:47;;;;;;;1.42;1.33;;;3.60;99.90;;;;;;5033966;28;20175;-77
2020/12/30 02:20:13;;;;;;;6.90;1.77;;;3.70;99.90;;;;;;5034088;28;20152;-75
2020/12/30 02:22:40;;;;;;;2.67;1.05;;;3.60;99.90;;;;;;5033904;28;20187;-78
2020/12/30 02:25:05;;;;;;;1.42;1.33;;;3.60;99.90;;;;;;5033802;28;20183;-78
2020/12/30 02:27:31;;;;;;;3.40;1.83;;;3.60;99.90;;;;;;5033920;28;20615;-77
2020/12/30 02:29:57;;;;;;;1.02;1.02;;;3.60;99.90;;;;;;5033752;28;20167;-79
2020/12/30 02:32:22;;;;;;;1.17;1.17;;;3.50;99.90;;;;;;5033798;28;20203;-77
2020/12/30 02:34:49;;;;;;;0.93;0.93;;;3.60;99.90;;;;;;5033584;28;20191;-78
2020/12/30 02:37:15;;;;;;;4.57;3.60;;;3.50;99.90;;;;;;5033862;28;20164;-75
2020/12/30 02:39:40;;;;;;;0.35;0.35;;;3.40;99.90;;;;;;5033570;28;20219;-77
2020/12/30 02:42:06;;;;;;;0.35;0.35;;;3.30;99.90;;;;;;5033527;28;20172;-77
2020/12/30 02:44:31;;;;;;;0.88;0.88;;;3.20;99.90;;;;;;5033509;28;20253;-76
2020/12/30 02:46:57;;;;;;;1.42;1.33;;;3.30;99.90;;;;;;5033517;28;20171;-77
2020/12/30 02:49:22;;;;;;;0.85;0.85;;;3.40;99.90;;;;;;5033444;28;20689;-77
2020/12/30 02:51:48;;;;;;;1.25;1.25;;;3.70;99.90;;;;;;5033330;28;20567;-76
2020/12/30 02:54:14;;;;;;;18.63;3.28;;;3.80;99.90;;;;;;5033458;28;20229;-76
2020/12/30 02:56:39;;;;;;;0.60;0.60;;;3.70;99.90;;;;;;5033305;28;20164;-77
2020/12/30 02:59:05;;;;;;;1.77;1.45;;;3.70;99.90;;;;;;5033338;28;20195;-76
2020/12/30 03:01:31;;;;;;;3.45;0.73;;;3.80;99.90;;;;;;5033274;28;20217;-77
2020/12/30 03:03:56;;;;;;;2.85;2.65;;;4.00;99.90;;;;;;5033291;28;20160;-78
2020/12/30 03:06:25;;;;;;;0.30;0.30;;;4.10;99.90;;;;;;5033196;28;20167;-78
2020/12/30 03:08:52;;;;;;;1.70;1.58;;;4.10;99.90;;;;;;5033110;28;20175;-76
2020/12/30 03:11:17;;;;;;;1.10;1.10;;;4.10;99.90;;;;;;5033086;28;20235;-78
2020/12/30 03:13:43;;;;;;;0.70;0.70;;;4.40;99.90;;;;;;5033194;28;20650;-77
2020/12/30 03:16:08;;;;;;;2.33;1.33;;;4.50;99.90;;;;;;5032978;28;20219;-78
2020/12/30 03:18:34;;;;;;;2.00;1.88;;;4.70;99.90;;;;;;5033113;28;20519;-78
2020/12/30 03:21:00;;;;;;;3.22;2.15;;;5.00;99.90;;;;;;5033002;28;20638;-75
2020/12/30 03:23:25;;;;;;;1.42;1.33;;;5.10;99.90;;;;;;5032844;28;20619;-79
2020/12/30 03:25:51;;;;;;;2.50;2.35;;;5.30;99.90;;;;;;5032974;28;20640;-77
2020/12/30 03:28:16;;;;;;;1.35;1.35;;;5.40;99.90;;;;;;5032987;28;20628;-76
2020/12/30 03:30:42;;;;;;;0.40;0.40;;;5.50;99.90;;;;;;5033089;28;20169;-78
2020/12/30 03:33:07;;;;;;;1.25;1.15;;;5.70;99.90;;;;;;5032857;28;20200;-75
2020/12/30 03:35:33;;;;;;;0.50;0.50;;;5.70;99.90;;;;;;5032934;28;20654;-76
2020/12/30 03:37:59;;;;;;;1.67;1.58;;;5.60;99.90;;;;;;5032824;28;20173;-77
2020/12/30 03:40:24;;;;;;;3.55;2.47;;;5.70;99.90;;;;;;5032813;28;20266;-78
2020/12/30 03:42:50;;;;;;;3.20;2.80;;;5.50;99.90;;;;;;5032828;28;20172;-77
2020/12/30 03:45:15;;;;;;;0.77;0.77;;;5.20;99.90;;;;;;5032751;28;20283;-77
2020/12/30 03:47:41;;;;;;;8.20;3.42;;;5.30;99.90;;;;;;5032785;28;20690;-77
2020/12/30 03:50:07;;;;;;;1.33;1.33;;;5.40;99.90;;;;;;5033054;28;20168;-75
2020/12/30 03:52:32;;;;;;;1.90;1.63;;;5.40;99.90;;;;;;5032665;28;20671;-76
2020/12/30 03:54:58;;;;;;;1.33;1.33;;;5.60;99.90;;;;;;5032765;28;20184;-77
2020/12/30 03:57:25;;;;;;;2.20;2.00;;;5.60;99.90;;;;;;5032819;28;20220;-76
2020/12/30 03:59:50;;;;;;;2.25;2.03;;;5.70;99.90;;;;;;5015270;28;20490;-78
2020/12/30 04:02:16;;;;;;;1.38;1.27;;;5.50;99.90;;;;;;5033251;28;20175;-77
2020/12/30 04:04:42;;;;;;;0.63;0.63;;;5.50;99.90;;;;;;5032540;28;20192;-79
2020/12/30 04:07:07;;;;;;;2.75;1.75;;;5.50;99.90;;;;;;5032658;28;20226;-77
2020/12/30 04:09:33;;;;;;;2.20;2.03;;;5.60;99.90;;;;;;5032768;28;20168;-79
2020/12/30 04:11:59;;;;;;;2.47;1.95;;;5.40;99.90;;;;;;5032515;28;20295;-77
2020/12/30 04:14:24;;;;;;;2.67;2.58;;;5.20;99.90;;;;;;5032510;28;20191;-75
2020/12/30 04:16:50;;;;;;;1.75;1.60;;;5.20;99.90;;;;;;5032553;28;20187;-78
2020/12/30 04:19:15;;;;;;;1.23;1.20;;;5.20;99.90;;;;;;5032655;28;20178;-77
2020/12/30 04:21:41;;;;;;;1.30;1.23;;;5.20;99.90;;;;;;5032569;28;20172;-77
2020/12/30 04:24:06;;;;;;;1.13;1.13;;;5.30;99.90;;;;;;5032644;28;20274;-79
2020/12/30 04:26:32;;;;;;;1.13;1.13;;;5.20;99.90;;;;;;5032634;28;20179;-77
2020/12/30 04:28:58;;;;;;;1.73;1.50;;;5.10;99.90;;;;;;5032415;28;20174;-76
2020/12/30 04:31:23;;;;;;;1.25;1.15;;;5.10;99.90;;;;;;5032359;28;20199;-77
2020/12/30 04:33:49;;;;;;;0.85;0.85;;;5.20;99.90;;;;;;5032388;28;20217;-77
2020/12/30 04:36:15;;;;;;;2.20;1.05;;;5.40;99.90;;;;;;5034741;28;20517;-77
2020/12/30 04:38:41;;;;;;;1.27;1.17;;;5.40;99.90;;;;;;5035856;28;20258;-76
2020/12/30 04:41:11;;;;;;;1.75;1.65;;;5.30;99.90;;;;;;5035639;28;20216;-77
2020/12/30 04:43:40;;;;;;;1.92;1.83;;;5.20;99.90;;;;;;5035794;28;20174;-78
2020/12/30 04:46:06;;;;;;;11.38;2.60;;;5.10;99.90;;;;;;5035717;28;20180;-77
2020/12/30 04:48:33;;;;;;;2.20;2.00;;;5.20;99.90;;;;;;5035533;28;20509;-77
2020/12/30 04:50:59;;;;;;;0.40;0.40;;;5.30;99.90;;;;;;5035440;28;20157;-78
2020/12/30 04:53:24;;;;;;;1.77;1.67;;;5.40;99.90;;;;;;5035505;28;20582;-79
2020/12/30 04:55:51;;;;;;;2.20;2.08;;;5.60;99.90;;;;;;5035384;28;20184;-78
2020/12/30 04:58:18;;;;;;;1.25;1.25;;;5.30;99.90;;;;;;5035521;28;20180;-78
2020/12/30 05:00:46;;;;;;;0.98;0.98;;;5.30;99.90;;;;;;5035684;28;20222;-78
2020/12/30 05:03:13;;;;;;;0.95;0.85;;;5.30;99.90;;;;;;5035472;28;20222;-79
2020/12/30 05:05:40;;;;;;;1.60;1.50;;;5.40;99.90;;;;;;5035240;28;20216;-77
2020/12/30 05:08:08;;;;;;;11.80;1.83;;;5.40;99.90;;;;;;5035488;28;20164;-78
2020/12/30 05:10:37;;;;;;;2.55;1.90;;;5.30;99.90;;;;;;5035107;28;20176;-79
2020/12/30 05:13:03;;;;;;;1.05;1.05;;;5.10;99.90;;;;;;5035214;28;20214;-76
2020/12/30 05:15:28;;;;;;;2.35;2.15;;;5.00;99.90;;;;;;5035025;28;20188;-77
2020/12/30 05:17:54;;;;;;;2.15;1.90;;;5.10;99.90;;;;;;5035214;28;20218;-77
2020/12/30 05:20:23;;;;;;;1.20;1.20;;;5.20;99.90;;;;;;5035072;28;20216;-79
2020/12/30 05:22:49;;;;;;;4.57;1.13;;;5.20;99.90;;;;;;5034710;28;20176;-77
2020/12/30 05:25:14;;;;;;;1.13;1.13;;;5.10;99.90;;;;;;5034964;28;20183;-77
2020/12/30 05:27:40;;;;;;;1.27;1.27;;;5.10;99.90;;;;;;5034854;28;20160;-77
2020/12/30 05:30:06;;;;;;;0.80;0.80;;;5.20;99.90;;;;;;5034978;28;20160;-78
2020/12/30 05:32:35;;;;;;;1.75;1.65;;;5.40;99.90;;;;;;5034815;28;20294;-78
2020/12/30 05:35:01;;;;;;;1.15;1.15;;;5.40;99.90;;;;;;5034771;28;20188;-79
2020/12/30 05:37:33;;;;;;;2.20;2.03;;;5.50;99.90;;;;;;5034699;28;20170;-79
2020/12/30 05:39:59;;;;;;;3.72;1.65;;;5.40;99.90;;;;;;5034332;28;20220;-77
2020/12/30 05:42:25;;;;;;;1.42;1.40;;;5.60;99.90;;;;;;5034683;28;20553;-78
2020/12/30 05:44:54;;;;;;;2.30;2.05;;;5.40;99.90;;;;;;5034428;28;20183;-78
2020/12/30 05:47:22;;;;;;;0.63;0.63;;;5.40;99.90;;;;;;5034837;28;20513;-77
2020/12/30 05:49:52;;;;;;;5.22;1.73;;;5.10;99.90;;;;;;5034391;28;20631;-77
2020/12/30 05:52:22;;;;;;;0.93;0.93;;;5.10;99.90;;;;;;5034221;28;20303;-79
2020/12/30 05:54:49;;;;;;;5.20;1.98;;;5.30;99.90;;;;;;5016581;28;20187;-77
2020/12/30 05:57:19;;;;;;;0.82;0.82;;;5.30;99.90;;;;;;5034403;28;20162;-78
2020/12/30 05:59:45;;;;;;;2.53;1.58;;;5.30;99.90;;;;;;5034370;28;20172;-78
2020/12/30 06:02:12;;;;;;;1.27;1.27;;;5.10;99.90;;;;;;5034245;28;20171;-77
2020/12/30 06:04:37;;;;;;;1.05;1.05;;;5.00;99.90;;;;;;5034095;28;20526;-78
2020/12/30 06:07:03;;;;;;;0.60;0.60;;;5.10;99.90;;;;;;5034196;28;20163;-77
2020/12/30 06:09:37;;;;;;;0.93;0.93;;;5.20;99.90;;;;;;5034158;28;20611;-77
2020/12/30 06:12:06;;;;;;;0.98;0.98;;;5.20;99.90;;;;;;5034015;28;20210;-79
2020/12/30 06:14:32;;;;;;;0.60;0.60;;;5.40;99.90;;;;;;5034071;28;20195;-77
2020/12/30 06:17:02;;;;;;;1.15;1.05;;;5.40;99.90;;;;;;5033809;28;20168;-77
2020/12/30 06:19:28;;;;;;;1.23;1.23;;;5.60;99.90;;;;;;5033963;28;20176;-77
2020/12/30 06:21:54;;;;;;;0.85;0.68;;;5.40;99.90;;;;;;5033804;28;20191;-79
2020/12/30 06:24:21;;;;;;;3.00;1.60;;;5.30;99.90;;;;;;5033700;28;20233;-80
2020/12/30 06:26:46;;;;;;;0.75;0.75;;;5.40;99.90;;;;;;5033739;28;20325;-77
2020/12/30 06:29:14;;;;;;;2.17;1.17;;;5.20;99.90;;;;;;5033734;28;20639;-79
2020/12/30 06:31:49;;;;;;;1.48;1.38;;;5.20;99.90;;;;;;5033586;28;20202;-79
2020/12/30 06:34:16;;;;;;;0.70;0.70;;;5.30;99.90;;;;;;5033483;28;20297;-78
2020/12/30 06:36:44;;;;;;;10.98;0.77;;;5.40;99.90;;;;;;5033708;28;20644;-79
2020/12/30 06:39:23;;;;;;;1.23;1.23;;;5.40;99.90;;;;;;5033367;28;20172;-77
2020/12/30 06:42:03;;;;;;;1.15;1.15;;;5.50;99.90;;;;;;5033574;28;20175;-76
2020/12/30 06:44:41;;;;;;;0.75;0.75;;;5.30;99.90;;;;;;5033514;28;20184;-77
2020/12/30 06:47:09;;;;;;;1.75;1.65;;;5.40;99.90;;;;;;5032998;28;20599;-76
2020/12/30 06:49:35;;;;;;;0.68;0.68;;;5.40;99.90;;;;;;5033485;28;20170;-79
2020/12/30 06:52:01;;;;;;;2.60;2.05;;;5.30;99.90;;;;;;5033217;28;20248;-77
2020/12/30 06:54:46;;;;;;;3.70;1.02;;;5.40;99.90;;;;;;5033183;28;20215;-77
2020/12/30 06:57:50;;;;;;;1.45;1.42;;;5.40;99.90;;;;;;5033296;28;20156;-78
2020/12/30 07:00:31;;;;;;;1.40;1.40;;;5.30;99.90;;;;;;4953243;29;20535;-78
2020/12/30 07:03:18;;;;;;;1.55;1.08;;;5.30;99.90;;;;;;4937087;29;20234;-79
2020/12/30 07:05:45;;;;;;;1.50;1.40;;;5.40;99.90;;;;;;5010100;28;20211;-80
2020/12/30 07:08:12;;;;;;;3.08;1.63;;;5.50;99.90;;;;;;5033133;28;20171;-80
2020/12/30 07:10:45;;;;;;;2.08;1.80;;;5.50;99.90;;;;;;5033210;28;20172;-80
2020/12/30 07:13:26;;;;;;;3.35;2.35;;;5.30;99.90;;;;;;5032911;28;20237;-79
2020/12/30 07:16:13;;;;;;;0.70;0.68;;;5.30;99.90;;;;;;5032981;28;20717;-80
2020/12/30 07:18:41;;;;;;;2.55;1.67;;;5.60;99.90;;;;;;5032956;28;20176;-78
2020/12/30 07:21:17;;;;;;;2.47;1.65;;;5.50;99.90;;;;;;5032864;28;20698;-79
2020/12/30 07:23:45;;;;;;;3.63;0.85;;;5.50;99.90;;;;;;5033037;28;20262;-79
2020/12/30 07:26:18;;;;;;;0.45;0.45;;;5.40;99.90;;;;;;5032800;28;20175;-79
2020/12/30 07:28:45;;;;;;;0.25;0.25;;;5.30;99.90;;;;;;5032946;28;20167;-80
2020/12/30 07:31:16;;;;;;;0.57;0.57;;;5.30;99.90;;;;;;5032765;28;20163;-78
2020/12/30 07:33:42;;;;;;;1.80;1.70;;;5.30;99.90;;;;;;5032836;28;20160;-81
2020/12/30 07:36:08;;;;;;;1.52;1.45;;;5.30;99.90;;;;;;5032815;28;20195;-77
2020/12/30 07:38:38;;;;;;;1.35;1.27;;;5.50;99.90;;;;;;5032437;28;20164;-80
2020/12/30 07:41:04;;;;;;;0.70;0.70;;;5.60;99.90;;;;;;5032508;28;20322;-80
2020/12/30 07:43:42;;;;;;;1.75;1.05;;;5.50;99.90;;;;;;5032546;28;20490;-78
2020/12/30 07:46:20;;;;;;;0.80;0.80;;;5.40;99.90;;;;;;5032484;28;20188;-79
2020/12/30 07:48:46;;;;;;;3.40;0.73;;;5.40;99.90;;;;;;5032594;28;20156;-80
2020/12/30 07:51:12;;;;;;;4.00;2.45;;;5.50;99.90;;;;;;5032491;28;20646;-78
2020/12/30 07:53:38;;;;;;;1.33;1.33;;;5.40;99.90;;;;;;5032990;28;20171;-79
2020/12/30 07:56:04;;;;;;;3.03;1.63;;;5.60;99.90;;;;;;5032584;28;20184;-78
2020/12/30 07:58:30;;;;;;;4.70;3.30;;;5.60;99.90;;;;;;5014721;28;20179;-80
2020/12/30 08:00:56;;;;;;;0.57;0.57;;;5.60;99.90;;;;;;5032718;28;20163;-80
2020/12/30 08:03:21;;;;;;;0.85;0.85;;;5.60;99.90;;;;;;5032422;28;20647;-80
2020/12/30 08:05:49;;;;;;;0.75;0.75;;;5.60;99.90;;;;;;5032366;28;20206;-80
2020/12/30 08:08:16;;;;;;;1.95;1.85;;;5.60;99.90;;;;;;5032335;28;20162;-80
2020/12/30 08:10:43;;;;;;;0.82;0.82;;;5.60;99.90;;;;;;5034322;28;20234;-78
2020/12/30 08:13:09;;;;;;;0.88;0.82;;;5.50;99.90;;;;;;5036258;28;20226;-78
2020/12/30 08:15:35;;;;;;;1.42;1.23;;;5.60;99.90;;;;;;5036141;28;20203;-78
2020/12/30 08:18:00;;;;;;;2.70;2.50;;;5.70;99.90;;;;;;5036059;28;20192;-78
2020/12/30 08:20:26;;;;;;;1.40;1.35;;;5.60;99.90;;;;;;5036245;28;20157;-78
2020/12/30 08:22:57;;;;;;;2.00;1.27;;;5.70;99.90;;;;;;5035804;28;20168;-78
2020/12/30 08:25:23;;;;;;;1.35;1.25;;;5.70;99.90;;;;;;5035922;28;20188;-78
2020/12/30 08:27:49;;;;;;;1.17;1.17;;;5.60;99.90;;;;;;5035944;28;20162;-80
2020/12/30 08:30:15;;;;;;;4.70;2.00;;;5.80;99.90;;;;;;5035815;28;20464;-79
2020/12/30 08:32:47;;;;;;;6.85;1.55;;;5.70;99.90;;;;;;5032881;28;20663;-77
2020/12/30 08:35:18;;;;;;;1.30;1.23;;;5.60;99.90;;;;;;5035219;28;20221;-78
2020/12/30 08:37:52;;;;;;;1.38;1.38;;;5.60;99.90;;;;;;5035565;28;20160;-77
2020/12/30 08:40:24;;;;;;;1.70;1.60;;;5.60;99.90;;;;;;5035216;28;20261;-79
2020/12/30 08:42:53;;;;;;;2.00;1.90;;;5.60;99.90;;;;;;5035503;28;20190;-76
2020/12/30 08:45:36;;;;;;;3.92;2.70;;;5.80;99.90;;;;;;5035644;28;20268;-78
2020/12/30 08:48:21;;;;;;;1.42;1.30;;;6.00;99.90;;;;;;5034021;28;20635;-79
2020/12/30 08:50:49;;;;;;;0.80;0.80;;;5.90;99.90;;;;;;5035509;28;20180;-78
2020/12/30 08:53:31;;;;;;;1.17;1.17;;;6.00;99.90;;;;;;5035276;28;20203;-77
2020/12/30 08:55:57;;;;;;;0.38;0.38;;;6.10;99.90;;;;;;5034096;28;20190;-79
2020/12/30 08:58:22;;;;;;;2.13;2.03;;;6.10;99.90;;;;;;5035216;28;20168;-79
2020/12/30 09:00:48;;;;;;;3.88;1.58;;;6.10;99.90;;;;;;5035294;28;20160;-77
2020/12/30 09:03:15;;;;;;;1.00;1.00;;;6.00;99.90;;;;;;5035215;28;20196;-78
2020/12/30 09:05:50;;;;;;;1.10;1.10;;;6.00;99.90;;;;;;5035273;28;20179;-77
2020/12/30 09:08:21;;;;;;;1.73;1.63;;;6.10;99.90;;;;;;5035223;28;20155;-79
2020/12/30 09:10:47;;;;;;;0.47;0.45;;;6.30;99.90;;;;;;5035292;28;20222;-79
2020/12/30 09:13:16;;;;;;;1.95;1.75;;;6.30;99.90;;;;;;5034998;28;20689;-79
2020/12/30 09:15:43;;;;;;;0.70;0.70;;;6.20;99.90;;;;;;5034967;28;20191;-79
2020/12/30 09:18:13;;;;;;;2.50;1.58;;;6.10;99.90;;;;;;5035169;28;20650;-79
2020/12/30 09:20:40;;;;;;;3.75;2.08;;;6.10;99.90;;;;;;5034437;28;20501;-79
2020/12/30 09:23:06;;;;;;;4.72;0.95;;;6.10;99.90;;;;;;5035204;28;20182;-79
2020/12/30 09:25:35;;;;;;;10.90;1.75;;;6.20;99.90;;;;;;5034902;28;20180;-82
2020/12/30 09:28:00;;;;;;;1.20;1.20;;;6.00;99.90;;;;;;5035775;28;20201;-88
2020/12/30 09:30:27;;;;;;;6.22;2.53;;;5.60;99.90;;;;;;5033668;28;20176;-81
2020/12/30 09:32:55;;;;;;;1.63;1.52;;;5.60;99.90;;;;;;5034613;28;20191;-81
2020/12/30 09:35:29;;;;;;;7.00;1.45;;;5.50;99.90;;;;;;5033525;28;20567;-81
2020/12/30 09:37:57;;;;;;;1.00;1.00;;;5.40;99.90;;;;;;5034423;28;20174;-81
2020/12/30 09:40:24;;;;;;;0.80;0.80;;;5.60;99.90;;;;;;5034390;28;20303;-80
2020/12/30 09:42:50;;;;;;;13.02;1.95;;;5.70;99.90;;;;;;5034625;28;20172;-82
2020/12/30 09:45:20;;;;;;;2.58;2.45;;;5.70;99.90;;;;;;5034780;28;20238;-90
2020/12/30 09:47:46;;;;;;;0.63;0.63;;;5.70;99.90;;;;;;5017781;28;20196;-76
2020/12/30 09:50:17;;;;;;;4.13;3.58;;;5.90;99.90;;;;;;5034665;28;20226;-80
2020/12/30 09:52:44;;;;;;;2.05;1.95;;;6.00;99.90;;;;;;5034306;28;20242;-79
2020/12/30 09:55:13;;;;;;;7.95;2.97;;;6.10;99.90;;;;;;5034216;28;20180;-79
2020/12/30 09:57:39;;;;;;;1.33;1.17;;;6.20;99.90;;;;;;5034428;28;20159;-80
2020/12/30 10:00:07;;;;;;;2.80;2.53;;;6.20;99.90;;;;;;5034176;28;20237;-79
2020/12/30 10:02:33;;;;;;;1.33;1.23;;;6.20;99.90;;;;;;5034066;28;20623;-78
2020/12/30 10:04:59;;;;;;;1.83;1.73;;;6.20;99.90;;;;;;5034063;28;20271;-78
2020/12/30 10:07:25;;;;;;;1.33;1.33;;;6.30;99.90;;;;;;5034372;28;20164;-76
2020/12/30 10:09:55;;;;;;;8.82;1.83;;;6.30;99.90;;;;;;5034128;28;20510;-78
2020/12/30 10:12:22;;;;;;;2.28;1.33;;;6.30;99.90;;;;;;5034084;28;20204;-78
2020/12/30 10:14:47;;;;;;;1.27;1.27;;;6.40;99.90;;;;;;5034192;28;20367;-79
2020/12/30 10:17:13;;;;;;;31.35;1.58;;;6.50;99.90;;;;;;5033892;28;20199;-77
2020/12/30 10:19:38;;;;;;;3.97;1.75;;;6.40;99.90;;;;;;5033695;28;20156;-76
2020/12/30 10:22:11;;;;;;;7.10;2.25;;;6.60;99.90;;;;;;5033796;28;20183;-78
2020/12/30 10:24:37;;;;;;;1.10;0.75;;;6.60;99.90;;;;;;5033838;28;20196;-77
2020/12/30 10:27:03;;;;;;;0.85;0.85;;;6.60;99.90;;;;;;5033544;28;20206;-79
2020/12/30 10:29:30;;;;;;;1.50;1.50;;;6.70;99.90;;;;;;5033717;28;20161;-79
2020/12/30 10:31:57;;;;;;;1.08;1.02;;;6.80;99.90;;;;;;5030601;28;20195;-77
2020/12/30 10:34:23;;;;;;;10.60;1.63;;;7.00;99.90;;;;;;5031368;28;20202;-76
2020/12/30 10:36:49;;;;;;;5.32;2.65;;;6.90;99.90;;;;;;5033181;28;20641;-77
2020/12/30 10:39:15;;;;;;;1.85;1.75;;;6.90;99.90;;;;;;5033231;28;20180;-75
2020/12/30 10:41:40;;;;;;;5.28;1.23;;;6.90;99.90;;;;;;5033472;28;20168;-76
2020/12/30 10:44:06;;;;;;;3.58;1.73;;;6.90;99.90;;;;;;5033512;28;20775;-75
2020/12/30 10:46:32;;;;;;;4.28;1.75;;;7.00;99.90;;;;;;5033136;28;20168;-76
2020/12/30 10:48:57;;;;;;;6.32;2.55;;;7.10;99.90;;;;;;5015124;28;20182;-78
2020/12/30 10:51:23;;;;;;;4.53;2.13;;;7.10;99.90;;;;;;5033230;28;20167;-76
2020/12/30 10:53:48;;;;;;;3.53;1.38;;;7.20;99.90;;;;;;5033196;28;20238;-78
2020/12/30 10:56:14;;;;;;;0.98;0.98;;;7.30;99.90;;;;;;5032956;28;20210;-78
2020/12/30 10:58:40;;;;;;;3.28;1.90;;;7.30;99.90;;;;;;5033123;28;20176;-76
2020/12/30 11:01:13;;;;;;;3.22;2.70;;;7.30;99.90;;;;;;5033314;28;20156;-77
2020/12/30 11:03:40;;;;;;;4.57;0.93;;;7.10;99.90;;;;;;5033001;28;20189;-77
2020/12/30 11:06:07;;;;;;;7.38;2.00;;;7.00;99.90;;;;;;5032848;28;20199;-75
2020/12/30 11:08:33;;;;;;;1.35;1.27;;;7.00;99.90;;;;;;5033175;28;20218;-78
2020/12/30 11:11:00;;;;;;;7.93;3.00;;;7.10;99.90;;;;;;5033504;28;20235;-77
2020/12/30 11:13:26;;;;;;;3.67;2.33;;;7.30;99.90;;;;;;5032824;28;20262;-79
2020/12/30 11:15:53;;;;;;;1.05;1.05;;;7.30;99.90;;;;;;5032833;28;20209;-78
2020/12/30 11:18:19;;;;;;;1.33;1.25;;;7.40;99.90;;;;;;5033415;28;20805;-79
2020/12/30 11:20:45;;;;;;;0.88;0.88;;;7.30;99.90;;;;;;5033103;28;20235;-75
2020/12/30 11:23:11;;;;;;;1.08;1.08;;;7.30;99.90;;;;;;5015115;28;20215;-76
2020/12/30 11:25:37;;;;;;;0.45;0.45;;;7.40;99.90;;;;;;5014976;28;20195;-77
2020/12/30 11:28:03;;;;;;;1.20;1.10;;;7.30;99.90;;;;;;5032575;28;20167;-76
2020/12/30 11:30:30;;;;;;;1.23;1.23;;;7.50;99.90;;;;;;5032573;28;20152;-77
2020/12/30 11:32:55;;;;;;;3.03;2.05;;;7.50;99.90;;;;;;5032333;28;20199;-76
2020/12/30 11:35:21;;;;;;;2.08;1.98;;;7.60;99.90;;;;;;5032734;28;20190;-76
2020/12/30 11:37:47;;;;;;;1.30;1.17;;;7.70;99.90;;;;;;5033040;28;20187;-78
2020/12/30 11:40:12;;;;;;;1.08;1.08;;;7.60;99.90;;;;;;5032148;28;20215;-77
2020/12/30 11:42:40;;;;;;;1.33;1.30;;;7.50;99.90;;;;;;5032737;28;20302;-77
2020/12/30 11:45:06;;;;;;;1.58;0.98;;;7.40;99.90;;;;;;5034874;28;20212;-76
2020/12/30 11:47:32;;;;;;;0.90;0.90;;;7.40;99.90;;;;;;5036421;28;20195;-77
2020/12/30 11:49:58;;;;;;;1.42;1.35;;;7.20;99.90;;;;;;5036695;28;20200;-76
2020/12/30 11:52:23;;;;;;;1.48;1.42;;;7.40;99.90;;;;;;5036523;28;20202;-74
2020/12/30 11:54:49;;;;;;;1.85;1.20;;;7.20;99.90;;;;;;5036533;28;20192;-77
2020/12/30 11:57:15;;;;;;;1.20;1.20;;;7.20;99.90;;;;;;5036543;28;20511;-76
2020/12/30 11:59:40;;;;;;;3.72;1.65;;;7.30;99.90;;;;;;5036472;28;20175;-78
2020/12/30 12:02:06;;;;;;;1.90;1.80;;;7.30;99.90;;;;;;5036365;28;20567;-78
2020/12/30 12:04:32;;;;;;;1.60;1.27;;;7.30;99.90;;;;;;5036175;28;20230;-78
2020/12/30 12:06:59;;;;;;;1.15;1.15;;;7.30;99.90;;;;;;5036665;28;20179;-78
2020/12/30 12:09:24;;;;;;;1.00;1.00;;;7.40;99.90;;;;;;5034659;28;20175;-76
2020/12/30 12:11:50;;;;;;;2.95;2.70;;;7.40;99.90;;;;;;5033735;28;20203;-77
2020/12/30 12:14:16;;;;;;;0.40;0.40;;;7.40;99.90;;;;;;5036166;28;20196;-76
2020/12/30 12:16:42;;;;;;;0.70;0.70;;;7.30;99.90;;;;;;5036035;28;20630;-77
2020/12/30 12:19:07;;;;;;;0.98;0.98;;;7.40;99.90;;;;;;5036030;28;20170;-77
2020/12/30 12:21:33;;;;;;;1.58;1.48;;;7.40;99.90;;;;;;5035996;28;20168;-77
2020/12/30 12:23:58;;;;;;;0.47;0.47;;;7.30;99.90;;;;;;5035849;28;20225;-76
2020/12/30 12:26:25;;;;;;;1.00;0.73;;;7.30;99.90;;;;;;5035718;28;20180;-76
2020/12/30 12:28:51;;;;;;;0.88;0.88;;;7.30;99.90;;;;;;5035850;28;20179;-79
2020/12/30 12:31:17;;;;;;;0.77;0.77;;;7.30;99.90;;;;;;5036007;28;20164;-76
2020/12/30 12:33:43;;;;;;;0.75;0.75;;;7.20;99.90;;;;;;5035454;28;20164;-78
2020/12/30 12:36:13;;;;;;;0.55;0.55;;;7.20;99.90;;;;;;5034724;28;20214;-78
2020/12/30 12:38:39;;;;;;;1.20;1.20;;;7.20;99.90;;;;;;5035730;28;20270;-78
2020/12/30 12:41:05;;;;;;;0.80;0.80;;;7.30;99.90;;;;;;5017854;28;20220;-78
2020/12/30 12:43:30;;;;;;;1.33;1.23;;;7.30;99.90;;;;;;5035525;28;20217;-78
2020/12/30 12:45:56;;;;;;;1.30;1.20;;;7.20;99.90;;;;;;5035048;28;20195;-78
2020/12/30 12:48:22;;;;;;;1.25;1.23;;;7.20;99.90;;;;;;5035267;28;20160;-79
2020/12/30 12:50:47;;;;;;;1.15;1.15;;;7.20;99.90;;;;;;5035016;28;20183;-77
2020/12/30 12:53:13;;;;;;;2.20;0.70;;;7.30;99.90;;;;;;5035179;28;20195;-79
2020/12/30 12:55:38;;;;;;;1.80;1.40;;;7.30;99.90;;;;;;5034123;28;20660;-78
2020/12/30 12:58:04;;;;;;;0.70;0.70;;;7.30;99.90;;;;;;5035037;28;20186;-78